sensor_id;sensor_type;location;lat;lon;timestamp;P1;durP1;ratioP1;P2;durP2;ratioP2
26951;SDS011;14507;52.418;13.398;2023-02-15T00:01:10;56.50;;;26.63;;
26951;SDS011;14507;52.418;13.398;2023-02-15T00:03:36;55.50;;;25.17;;
26951;SDS011;14507;52.418;13.398;2023-02-15T00:06:03;51.63;;;24.40;;
26951;SDS011;14507;52.418;13.398;2023-02-15T00:08:29;49.92;;;24.60;;
26951;SDS011;14507;52.418;13.398;2023-02-15T00:11:05;53.17;;;23.42;;
26951;SDS011;14507;52.418;13.398;2023-02-15T00:13:32;50.83;;;24.58;;
26951;SDS011;14507;52.418;13.398;2023-02-15T00:16:04;50.42;;;25.05;;
26951;SDS011;14507;52.418;13.398;2023-02-15T00:18:32;46.92;;;23.77;;
26951;SDS011;14507;52.418;13.398;2023-02-15T00:20:58;51.83;;;24.85;;
26951;SDS011;14507;52.418;13.398;2023-02-15T00:23:29;46.20;;;23.77;;
26951;SDS011;14507;52.418;13.398;2023-02-15T00:26:08;50.13;;;25.00;;
26951;SDS011;14507;52.418;13.398;2023-02-15T00:28:35;47.65;;;24.25;;
26951;SDS011;14507;52.418;13.398;2023-02-15T00:31:11;52.72;;;25.10;;
26951;SDS011;14507;52.418;13.398;2023-02-15T00:33:37;51.40;;;25.23;;
26951;SDS011;14507;52.418;13.398;2023-02-15T00:36:05;51.05;;;24.63;;
26951;SDS011;14507;52.418;13.398;2023-02-15T00:38:32;51.45;;;24.75;;
26951;SDS011;14507;52.418;13.398;2023-02-15T00:40:58;52.58;;;24.77;;
26951;SDS011;14507;52.418;13.398;2023-02-15T00:43:26;53.60;;;25.80;;
26951;SDS011;14507;52.418;13.398;2023-02-15T00:45:53;50.47;;;25.10;;
26951;SDS011;14507;52.418;13.398;2023-02-15T00:48:19;50.83;;;25.40;;
26951;SDS011;14507;52.418;13.398;2023-02-15T00:50:46;49.20;;;25.02;;
26951;SDS011;14507;52.418;13.398;2023-02-15T00:53:16;50.83;;;24.55;;
26951;SDS011;14507;52.418;13.398;2023-02-15T00:55:42;52.78;;;24.58;;
26951;SDS011;14507;52.418;13.398;2023-02-15T00:58:08;50.53;;;25.67;;
26951;SDS011;14507;52.418;13.398;2023-02-15T01:00:36;51.08;;;25.92;;
26951;SDS011;14507;52.418;13.398;2023-02-15T01:03:02;48.35;;;24.55;;
26951;SDS011;14507;52.418;13.398;2023-02-15T01:05:28;49.22;;;24.48;;
26951;SDS011;14507;52.418;13.398;2023-02-15T01:07:55;50.45;;;24.75;;
26951;SDS011;14507;52.418;13.398;2023-02-15T01:10:21;51.88;;;25.30;;
26951;SDS011;14507;52.418;13.398;2023-02-15T01:12:47;51.85;;;25.88;;
26951;SDS011;14507;52.418;13.398;2023-02-15T01:15:13;51.75;;;24.75;;
26951;SDS011;14507;52.418;13.398;2023-02-15T01:17:38;54.25;;;24.38;;
26951;SDS011;14507;52.418;13.398;2023-02-15T01:20:04;53.08;;;25.88;;
26951;SDS011;14507;52.418;13.398;2023-02-15T01:22:31;50.65;;;25.00;;
26951;SDS011;14507;52.418;13.398;2023-02-15T01:24:57;52.65;;;25.45;;
26951;SDS011;14507;52.418;13.398;2023-02-15T01:27:22;53.97;;;26.92;;
26951;SDS011;14507;52.418;13.398;2023-02-15T01:29:48;52.95;;;25.08;;
26951;SDS011;14507;52.418;13.398;2023-02-15T01:32:13;53.15;;;25.20;;
26951;SDS011;14507;52.418;13.398;2023-02-15T01:34:39;52.33;;;25.33;;
26951;SDS011;14507;52.418;13.398;2023-02-15T01:37:05;52.40;;;26.88;;
26951;SDS011;14507;52.418;13.398;2023-02-15T01:39:30;56.20;;;28.20;;
26951;SDS011;14507;52.418;13.398;2023-02-15T01:41:56;51.80;;;27.00;;
26951;SDS011;14507;52.418;13.398;2023-02-15T01:50:06;56.60;;;28.58;;
26951;SDS011;14507;52.418;13.398;2023-02-15T01:52:45;55.60;;;26.73;;
26951;SDS011;14507;52.418;13.398;2023-02-15T01:55:18;58.92;;;26.50;;
26951;SDS011;14507;52.418;13.398;2023-02-15T01:57:46;59.08;;;26.73;;
26951;SDS011;14507;52.418;13.398;2023-02-15T02:00:12;54.47;;;26.10;;
26951;SDS011;14507;52.418;13.398;2023-02-15T02:02:39;56.88;;;27.02;;
26951;SDS011;14507;52.418;13.398;2023-02-15T02:05:06;58.67;;;27.45;;
26951;SDS011;14507;52.418;13.398;2023-02-15T02:07:33;57.70;;;27.40;;
26951;SDS011;14507;52.418;13.398;2023-02-15T02:10:05;56.00;;;26.15;;
26951;SDS011;14507;52.418;13.398;2023-02-15T02:12:34;59.75;;;27.73;;
26951;SDS011;14507;52.418;13.398;2023-02-15T02:15:03;55.20;;;27.20;;
26951;SDS011;14507;52.418;13.398;2023-02-15T02:23:33;64.25;;;28.80;;
26951;SDS011;14507;52.418;13.398;2023-02-15T02:26:25;61.88;;;28.90;;
26951;SDS011;14507;52.418;13.398;2023-02-15T02:37:29;70.45;;;30.52;;
26951;SDS011;14507;52.418;13.398;2023-02-15T02:40:19;72.38;;;31.77;;
26951;SDS011;14507;52.418;13.398;2023-02-15T02:42:55;71.05;;;31.58;;
26951;SDS011;14507;52.418;13.398;2023-02-15T02:45:40;90.35;;;37.90;;
26951;SDS011;14507;52.418;13.398;2023-02-15T02:48:21;87.63;;;38.58;;
26951;SDS011;14507;52.418;13.398;2023-02-15T02:50:49;92.55;;;38.50;;
26951;SDS011;14507;52.418;13.398;2023-02-15T02:53:14;90.35;;;39.47;;
26951;SDS011;14507;52.418;13.398;2023-02-15T02:55:42;90.82;;;38.88;;
26951;SDS011;14507;52.418;13.398;2023-02-15T02:58:19;100.07;;;40.65;;
26951;SDS011;14507;52.418;13.398;2023-02-15T03:00:58;94.60;;;39.88;;
26951;SDS011;14507;52.418;13.398;2023-02-15T03:06:09;97.13;;;43.13;;
26951;SDS011;14507;52.418;13.398;2023-02-15T03:08:44;103.38;;;44.13;;
26951;SDS011;14507;52.418;13.398;2023-02-15T03:11:13;101.43;;;42.80;;
26951;SDS011;14507;52.418;13.398;2023-02-15T03:13:39;100.00;;;42.47;;
26951;SDS011;14507;52.418;13.398;2023-02-15T03:16:05;103.10;;;41.55;;
26951;SDS011;14507;52.418;13.398;2023-02-15T03:21:57;105.63;;;43.53;;
26951;SDS011;14507;52.418;13.398;2023-02-15T03:24:46;103.40;;;41.38;;
26951;SDS011;14507;52.418;13.398;2023-02-15T03:27:35;103.75;;;42.10;;
26951;SDS011;14507;52.418;13.398;2023-02-15T03:30:05;102.35;;;42.70;;
26951;SDS011;14507;52.418;13.398;2023-02-15T03:32:32;105.72;;;43.08;;
26951;SDS011;14507;52.418;13.398;2023-02-15T03:34:59;98.95;;;41.30;;
26951;SDS011;14507;52.418;13.398;2023-02-15T03:37:39;105.97;;;41.22;;
26951;SDS011;14507;52.418;13.398;2023-02-15T03:40:22;111.05;;;43.28;;
26951;SDS011;14507;52.418;13.398;2023-02-15T03:43:11;111.22;;;43.15;;
26951;SDS011;14507;52.418;13.398;2023-02-15T03:45:57;108.30;;;42.78;;
26951;SDS011;14507;52.418;13.398;2023-02-15T03:48:32;103.97;;;42.88;;
26951;SDS011;14507;52.418;13.398;2023-02-15T03:51:21;103.18;;;42.53;;
26951;SDS011;14507;52.418;13.398;2023-02-15T03:57:03;99.28;;;39.25;;
26951;SDS011;14507;52.418;13.398;2023-02-15T03:59:48;103.65;;;41.40;;
26951;SDS011;14507;52.418;13.398;2023-02-15T04:02:38;103.63;;;41.47;;
26951;SDS011;14507;52.418;13.398;2023-02-15T04:05:11;104.38;;;41.38;;
26951;SDS011;14507;52.418;13.398;2023-02-15T04:07:39;96.68;;;41.22;;
26951;SDS011;14507;52.418;13.398;2023-02-15T04:10:05;98.22;;;41.25;;
26951;SDS011;14507;52.418;13.398;2023-02-15T04:12:49;105.25;;;40.47;;
26951;SDS011;14507;52.418;13.398;2023-02-15T04:15:15;106.07;;;42.15;;
26951;SDS011;14507;52.418;13.398;2023-02-15T04:18:02;103.88;;;42.33;;
26951;SDS011;14507;52.418;13.398;2023-02-15T04:20:28;101.10;;;42.65;;
26951;SDS011;14507;52.418;13.398;2023-02-15T04:23:12;101.85;;;40.72;;
26951;SDS011;14507;52.418;13.398;2023-02-15T04:25:56;100.85;;;40.85;;
26951;SDS011;14507;52.418;13.398;2023-02-15T04:28:21;98.63;;;40.30;;
26951;SDS011;14507;52.418;13.398;2023-02-15T04:30:47;107.53;;;41.92;;
26951;SDS011;14507;52.418;13.398;2023-02-15T04:33:13;102.70;;;40.65;;
26951;SDS011;14507;52.418;13.398;2023-02-15T04:35:38;107.20;;;41.17;;
26951;SDS011;14507;52.418;13.398;2023-02-15T04:38:04;103.53;;;42.33;;
26951;SDS011;14507;52.418;13.398;2023-02-15T04:40:32;99.47;;;41.10;;
26951;SDS011;14507;52.418;13.398;2023-02-15T04:42:58;101.78;;;41.03;;
26951;SDS011;14507;52.418;13.398;2023-02-15T04:45:23;91.50;;;39.58;;
26951;SDS011;14507;52.418;13.398;2023-02-15T04:47:49;101.60;;;41.60;;
26951;SDS011;14507;52.418;13.398;2023-02-15T04:50:14;105.38;;;41.72;;
26951;SDS011;14507;52.418;13.398;2023-02-15T04:52:40;101.63;;;40.88;;
26951;SDS011;14507;52.418;13.398;2023-02-15T04:55:06;99.47;;;39.47;;
26951;SDS011;14507;52.418;13.398;2023-02-15T04:57:32;98.95;;;42.15;;
26951;SDS011;14507;52.418;13.398;2023-02-15T04:59:57;100.40;;;41.10;;
26951;SDS011;14507;52.418;13.398;2023-02-15T05:02:24;98.35;;;40.20;;
26951;SDS011;14507;52.418;13.398;2023-02-15T05:04:52;103.40;;;39.80;;
26951;SDS011;14507;52.418;13.398;2023-02-15T05:07:18;94.35;;;39.70;;
26951;SDS011;14507;52.418;13.398;2023-02-15T05:09:45;108.73;;;41.27;;
26951;SDS011;14507;52.418;13.398;2023-02-15T05:12:10;101.15;;;39.20;;
26951;SDS011;14507;52.418;13.398;2023-02-15T05:14:36;96.75;;;39.75;;
26951;SDS011;14507;52.418;13.398;2023-02-15T05:17:02;95.40;;;39.78;;
26951;SDS011;14507;52.418;13.398;2023-02-15T05:19:28;101.63;;;40.20;;
26951;SDS011;14507;52.418;13.398;2023-02-15T05:21:54;111.18;;;42.67;;
26951;SDS011;14507;52.418;13.398;2023-02-15T05:24:20;115.45;;;43.15;;
26951;SDS011;14507;52.418;13.398;2023-02-15T05:27:07;113.60;;;40.97;;
26951;SDS011;14507;52.418;13.398;2023-02-15T05:29:54;108.38;;;40.20;;
26951;SDS011;14507;52.418;13.398;2023-02-15T05:32:20;111.55;;;42.38;;
26951;SDS011;14507;52.418;13.398;2023-02-15T05:34:45;109.10;;;42.78;;
26951;SDS011;14507;52.418;13.398;2023-02-15T05:37:11;104.10;;;42.40;;
26951;SDS011;14507;52.418;13.398;2023-02-15T05:39:36;102.50;;;39.65;;
26951;SDS011;14507;52.418;13.398;2023-02-15T05:42:02;101.50;;;39.83;;
26951;SDS011;14507;52.418;13.398;2023-02-15T05:44:30;103.22;;;39.90;;
26951;SDS011;14507;52.418;13.398;2023-02-15T05:46:56;120.72;;;41.38;;
26951;SDS011;14507;52.418;13.398;2023-02-15T05:49:22;123.07;;;39.58;;
26951;SDS011;14507;52.418;13.398;2023-02-15T05:51:50;114.55;;;43.05;;
26951;SDS011;14507;52.418;13.398;2023-02-15T05:54:16;161.30;;;42.42;;
26951;SDS011;14507;52.418;13.398;2023-02-15T05:56:41;96.80;;;39.45;;
26951;SDS011;14507;52.418;13.398;2023-02-15T05:59:07;103.75;;;40.67;;
26951;SDS011;14507;52.418;13.398;2023-02-15T06:01:33;103.28;;;40.42;;
26951;SDS011;14507;52.418;13.398;2023-02-15T06:03:58;138.30;;;39.42;;
26951;SDS011;14507;52.418;13.398;2023-02-15T06:06:24;87.03;;;34.20;;
26951;SDS011;14507;52.418;13.398;2023-02-15T06:08:50;125.45;;;35.88;;
26951;SDS011;14507;52.418;13.398;2023-02-15T06:11:15;81.30;;;32.00;;
26951;SDS011;14507;52.418;13.398;2023-02-15T06:13:41;148.27;;;36.53;;
26951;SDS011;14507;52.418;13.398;2023-02-15T06:16:06;172.57;;;36.67;;
26951;SDS011;14507;52.418;13.398;2023-02-15T06:18:32;81.70;;;34.65;;
26951;SDS011;14507;52.418;13.398;2023-02-15T06:20:58;93.60;;;35.28;;
26951;SDS011;14507;52.418;13.398;2023-02-15T06:23:23;86.10;;;34.72;;
26951;SDS011;14507;52.418;13.398;2023-02-15T06:25:49;99.90;;;36.30;;
26951;SDS011;14507;52.418;13.398;2023-02-15T06:28:15;98.57;;;37.13;;
26951;SDS011;14507;52.418;13.398;2023-02-15T06:30:40;130.55;;;38.58;;
26951;SDS011;14507;52.418;13.398;2023-02-15T06:33:06;133.38;;;39.47;;
26951;SDS011;14507;52.418;13.398;2023-02-15T06:35:32;107.35;;;35.50;;
26951;SDS011;14507;52.418;13.398;2023-02-15T06:37:57;132.77;;;35.88;;
26951;SDS011;14507;52.418;13.398;2023-02-15T06:40:23;88.45;;;37.05;;
26951;SDS011;14507;52.418;13.398;2023-02-15T06:42:48;95.55;;;35.45;;
26951;SDS011;14507;52.418;13.398;2023-02-15T06:45:14;103.35;;;36.72;;
26951;SDS011;14507;52.418;13.398;2023-02-15T06:47:40;116.10;;;32.50;;
26951;SDS011;14507;52.418;13.398;2023-02-15T06:50:06;99.93;;;35.03;;
26951;SDS011;14507;52.418;13.398;2023-02-15T06:52:32;106.45;;;33.70;;
26951;SDS011;14507;52.418;13.398;2023-02-15T06:54:58;104.72;;;33.63;;
26951;SDS011;14507;52.418;13.398;2023-02-15T06:57:24;99.05;;;33.17;;
26951;SDS011;14507;52.418;13.398;2023-02-15T06:59:50;95.90;;;33.28;;
26951;SDS011;14507;52.418;13.398;2023-02-15T07:02:15;81.80;;;32.05;;
26951;SDS011;14507;52.418;13.398;2023-02-15T07:04:41;80.95;;;33.30;;
26951;SDS011;14507;52.418;13.398;2023-02-15T07:07:10;115.55;;;32.50;;
26951;SDS011;14507;52.418;13.398;2023-02-15T07:09:37;93.75;;;31.35;;
26951;SDS011;14507;52.418;13.398;2023-02-15T07:12:03;96.05;;;33.08;;
26951;SDS011;14507;52.418;13.398;2023-02-15T07:14:48;77.97;;;32.15;;
26951;SDS011;14507;52.418;13.398;2023-02-15T07:17:13;77.22;;;32.30;;
26951;SDS011;14507;52.418;13.398;2023-02-15T07:19:39;79.88;;;33.90;;
26951;SDS011;14507;52.418;13.398;2023-02-15T07:22:05;84.28;;;32.28;;
26951;SDS011;14507;52.418;13.398;2023-02-15T07:24:30;98.95;;;31.67;;
26951;SDS011;14507;52.418;13.398;2023-02-15T07:26:57;98.13;;;31.02;;
26951;SDS011;14507;52.418;13.398;2023-02-15T07:29:22;102.75;;;30.50;;
26951;SDS011;14507;52.418;13.398;2023-02-15T07:31:48;72.40;;;31.55;;
26951;SDS011;14507;52.418;13.398;2023-02-15T07:34:14;78.72;;;31.33;;
26951;SDS011;14507;52.418;13.398;2023-02-15T07:36:40;76.53;;;32.95;;
26951;SDS011;14507;52.418;13.398;2023-02-15T07:39:06;89.50;;;33.33;;
26951;SDS011;14507;52.418;13.398;2023-02-15T07:41:32;78.80;;;33.22;;
26951;SDS011;14507;52.418;13.398;2023-02-15T07:43:58;76.18;;;32.28;;
26951;SDS011;14507;52.418;13.398;2023-02-15T07:46:24;77.63;;;32.33;;
26951;SDS011;14507;52.418;13.398;2023-02-15T07:48:49;94.78;;;32.45;;
26951;SDS011;14507;52.418;13.398;2023-02-15T07:51:15;74.05;;;31.45;;
26951;SDS011;14507;52.418;13.398;2023-02-15T07:53:41;81.03;;;33.67;;
26951;SDS011;14507;52.418;13.398;2023-02-15T07:56:09;77.93;;;33.33;;
26951;SDS011;14507;52.418;13.398;2023-02-15T07:58:35;86.22;;;34.22;;
26951;SDS011;14507;52.418;13.398;2023-02-15T08:03:53;123.60;;;35.78;;
26951;SDS011;14507;52.418;13.398;2023-02-15T08:06:20;91.60;;;35.13;;
26951;SDS011;14507;52.418;13.398;2023-02-15T08:08:46;85.03;;;34.20;;
26951;SDS011;14507;52.418;13.398;2023-02-15T08:11:19;86.47;;;36.42;;
26951;SDS011;14507;52.418;13.398;2023-02-15T08:14:11;89.95;;;35.67;;
26951;SDS011;14507;52.418;13.398;2023-02-15T08:19:21;94.47;;;35.88;;
26951;SDS011;14507;52.418;13.398;2023-02-15T08:21:49;94.50;;;37.15;;
26951;SDS011;14507;52.418;13.398;2023-02-15T08:24:16;87.60;;;34.10;;
26951;SDS011;14507;52.418;13.398;2023-02-15T08:26:46;80.72;;;33.25;;
26951;SDS011;14507;52.418;13.398;2023-02-15T08:29:13;76.28;;;32.50;;
26951;SDS011;14507;52.418;13.398;2023-02-15T08:31:40;79.13;;;33.10;;
26951;SDS011;14507;52.418;13.398;2023-02-15T08:34:06;82.75;;;33.80;;
26951;SDS011;14507;52.418;13.398;2023-02-15T08:36:33;82.93;;;34.95;;
26951;SDS011;14507;52.418;13.398;2023-02-15T08:39:00;106.70;;;33.33;;
26951;SDS011;14507;52.418;13.398;2023-02-15T08:41:29;81.22;;;32.00;;
26951;SDS011;14507;52.418;13.398;2023-02-15T08:43:57;83.10;;;34.30;;
26951;SDS011;14507;52.418;13.398;2023-02-15T08:46:26;82.28;;;31.35;;
26951;SDS011;14507;52.418;13.398;2023-02-15T08:48:54;76.72;;;32.17;;
26951;SDS011;14507;52.418;13.398;2023-02-15T08:51:21;74.55;;;31.95;;
26951;SDS011;14507;52.418;13.398;2023-02-15T08:53:50;93.97;;;33.33;;
26951;SDS011;14507;52.418;13.398;2023-02-15T08:56:21;75.57;;;32.42;;
26951;SDS011;14507;52.418;13.398;2023-02-15T08:58:56;76.28;;;32.78;;
26951;SDS011;14507;52.418;13.398;2023-02-15T09:01:23;79.22;;;32.03;;
26951;SDS011;14507;52.418;13.398;2023-02-15T09:03:57;78.65;;;31.98;;
26951;SDS011;14507;52.418;13.398;2023-02-15T09:06:27;86.53;;;32.65;;
26951;SDS011;14507;52.418;13.398;2023-02-15T09:08:54;76.68;;;32.72;;
26951;SDS011;14507;52.418;13.398;2023-02-15T09:11:24;81.90;;;32.67;;
26951;SDS011;14507;52.418;13.398;2023-02-15T09:13:55;81.28;;;32.53;;
26951;SDS011;14507;52.418;13.398;2023-02-15T09:16:26;79.80;;;31.65;;
26951;SDS011;14507;52.418;13.398;2023-02-15T09:18:54;78.03;;;33.08;;
26951;SDS011;14507;52.418;13.398;2023-02-15T09:21:23;79.30;;;33.33;;
26951;SDS011;14507;52.418;13.398;2023-02-15T09:23:50;75.05;;;31.63;;
26951;SDS011;14507;52.418;13.398;2023-02-15T09:26:20;82.60;;;33.30;;
26951;SDS011;14507;52.418;13.398;2023-02-15T09:28:47;79.20;;;32.97;;
26951;SDS011;14507;52.418;13.398;2023-02-15T09:31:17;82.63;;;34.35;;
26951;SDS011;14507;52.418;13.398;2023-02-15T09:33:45;80.55;;;32.95;;
26951;SDS011;14507;52.418;13.398;2023-02-15T09:36:16;78.82;;;32.25;;
26951;SDS011;14507;52.418;13.398;2023-02-15T09:38:46;84.15;;;33.55;;
26951;SDS011;14507;52.418;13.398;2023-02-15T09:49:53;70.55;;;31.30;;
26951;SDS011;14507;52.418;13.398;2023-02-15T09:52:52;74.35;;;31.83;;
26951;SDS011;14507;52.418;13.398;2023-02-15T09:56:01;77.55;;;32.45;;
26951;SDS011;14507;52.418;13.398;2023-02-15T09:58:46;68.28;;;30.42;;
26951;SDS011;14507;52.418;13.398;2023-02-15T10:01:17;80.25;;;31.92;;
26951;SDS011;14507;52.418;13.398;2023-02-15T10:22:59;73.45;;;32.92;;
26951;SDS011;14507;52.418;13.398;2023-02-15T10:28:06;71.60;;;31.63;;
26951;SDS011;14507;52.418;13.398;2023-02-15T10:30:43;76.65;;;32.58;;
26951;SDS011;14507;52.418;13.398;2023-02-15T10:33:59;72.53;;;33.50;;
26951;SDS011;14507;52.418;13.398;2023-02-15T10:36:16;73.90;;;31.73;;
26951;SDS011;14507;52.418;13.398;2023-02-15T10:44:20;77.67;;;32.87;;
26951;SDS011;14507;52.418;13.398;2023-02-15T10:52:14;69.85;;;30.13;;
26951;SDS011;14507;52.418;13.398;2023-02-15T10:57:49;69.22;;;31.85;;
26951;SDS011;14507;52.418;13.398;2023-02-15T11:00:38;66.35;;;31.95;;
26951;SDS011;14507;52.418;13.398;2023-02-15T11:06:08;64.32;;;30.13;;
26951;SDS011;14507;52.418;13.398;2023-02-15T11:08:39;67.30;;;31.25;;
26951;SDS011;14507;52.418;13.398;2023-02-15T11:11:11;65.97;;;31.27;;
26951;SDS011;14507;52.418;13.398;2023-02-15T11:13:45;71.13;;;32.17;;
26951;SDS011;14507;52.418;13.398;2023-02-15T11:16:20;67.53;;;30.70;;
26951;SDS011;14507;52.418;13.398;2023-02-15T11:23:51;72.05;;;31.17;;
26951;SDS011;14507;52.418;13.398;2023-02-15T11:28:51;62.28;;;29.73;;
26951;SDS011;14507;52.418;13.398;2023-02-15T11:31:23;75.93;;;30.92;;
26951;SDS011;14507;52.418;13.398;2023-02-15T11:38:59;66.97;;;30.58;;
26951;SDS011;14507;52.418;13.398;2023-02-15T11:41:29;64.38;;;29.85;;
26951;SDS011;14507;52.418;13.398;2023-02-15T11:44:03;72.80;;;32.45;;
26951;SDS011;14507;52.418;13.398;2023-02-15T11:46:33;64.90;;;30.63;;
26951;SDS011;14507;52.418;13.398;2023-02-15T11:48:59;64.40;;;29.92;;
26951;SDS011;14507;52.418;13.398;2023-02-15T11:51:25;65.28;;;29.20;;
26951;SDS011;14507;52.418;13.398;2023-02-15T11:53:53;64.40;;;29.90;;
26951;SDS011;14507;52.418;13.398;2023-02-15T11:56:20;60.80;;;29.13;;
26951;SDS011;14507;52.418;13.398;2023-02-15T11:58:53;63.00;;;29.38;;
26951;SDS011;14507;52.418;13.398;2023-02-15T12:01:33;62.58;;;29.08;;
26951;SDS011;14507;52.418;13.398;2023-02-15T12:07:03;59.72;;;28.92;;
26951;SDS011;14507;52.418;13.398;2023-02-15T12:12:28;66.88;;;29.02;;
26951;SDS011;14507;52.418;13.398;2023-02-15T12:14:56;58.88;;;28.92;;
26951;SDS011;14507;52.418;13.398;2023-02-15T12:17:27;68.20;;;29.15;;
26951;SDS011;14507;52.418;13.398;2023-02-15T12:20:19;58.80;;;28.77;;
26951;SDS011;14507;52.418;13.398;2023-02-15T12:22:49;57.63;;;28.30;;
26951;SDS011;14507;52.418;13.398;2023-02-15T12:25:36;59.95;;;26.95;;
26951;SDS011;14507;52.418;13.398;2023-02-15T12:28:16;63.08;;;28.40;;
26951;SDS011;14507;52.418;13.398;2023-02-15T12:30:50;59.25;;;27.80;;
26951;SDS011;14507;52.418;13.398;2023-02-15T12:33:34;58.22;;;27.50;;
26951;SDS011;14507;52.418;13.398;2023-02-15T12:39:14;55.83;;;26.73;;
26951;SDS011;14507;52.418;13.398;2023-02-15T12:44:28;57.65;;;27.88;;
26951;SDS011;14507;52.418;13.398;2023-02-15T12:49:32;54.95;;;28.63;;
26951;SDS011;14507;52.418;13.398;2023-02-15T12:52:01;56.80;;;28.10;;
26951;SDS011;14507;52.418;13.398;2023-02-15T12:54:42;58.25;;;28.00;;
26951;SDS011;14507;52.418;13.398;2023-02-15T12:57:27;62.35;;;28.67;;
26951;SDS011;14507;52.418;13.398;2023-02-15T12:59:55;56.78;;;27.25;;
26951;SDS011;14507;52.418;13.398;2023-02-15T13:02:22;53.03;;;28.50;;
26951;SDS011;14507;52.418;13.398;2023-02-15T13:04:48;62.15;;;28.27;;
26951;SDS011;14507;52.418;13.398;2023-02-15T13:07:15;57.05;;;27.58;;
26951;SDS011;14507;52.418;13.398;2023-02-15T13:09:41;55.75;;;26.75;;
26951;SDS011;14507;52.418;13.398;2023-02-15T13:12:26;50.85;;;26.33;;
26951;SDS011;14507;52.418;13.398;2023-02-15T13:14:55;53.85;;;26.40;;
26951;SDS011;14507;52.418;13.398;2023-02-15T13:17:26;54.65;;;25.35;;
26951;SDS011;14507;52.418;13.398;2023-02-15T13:20:03;53.17;;;25.38;;
26951;SDS011;14507;52.418;13.398;2023-02-15T13:22:38;52.22;;;25.63;;
26951;SDS011;14507;52.418;13.398;2023-02-15T13:25:26;53.03;;;25.60;;
26951;SDS011;14507;52.418;13.398;2023-02-15T13:28:00;49.42;;;24.90;;
26951;SDS011;14507;52.418;13.398;2023-02-15T13:30:35;50.58;;;25.10;;
26951;SDS011;14507;52.418;13.398;2023-02-15T13:33:10;48.60;;;25.10;;
26951;SDS011;14507;52.418;13.398;2023-02-15T13:35:46;49.08;;;24.70;;
26951;SDS011;14507;52.418;13.398;2023-02-15T13:41:06;54.83;;;24.77;;
26951;SDS011;14507;52.418;13.398;2023-02-15T13:52:24;41.50;;;22.15;;
26951;SDS011;14507;52.418;13.398;2023-02-15T14:00:32;37.25;;;20.38;;
26951;SDS011;14507;52.418;13.398;2023-02-15T14:11:41;30.00;;;14.57;;
26951;SDS011;14507;52.418;13.398;2023-02-15T14:16:41;29.55;;;14.65;;
26951;SDS011;14507;52.418;13.398;2023-02-15T14:27:52;26.90;;;14.73;;
26951;SDS011;14507;52.418;13.398;2023-02-15T14:30:23;28.40;;;14.52;;
26951;SDS011;14507;52.418;13.398;2023-02-15T14:32:54;30.58;;;14.90;;
26951;SDS011;14507;52.418;13.398;2023-02-15T14:35:32;27.42;;;14.52;;
26951;SDS011;14507;52.418;13.398;2023-02-15T14:40:38;26.17;;;13.70;;
26951;SDS011;14507;52.418;13.398;2023-02-15T14:43:47;24.20;;;13.70;;
26951;SDS011;14507;52.418;13.398;2023-02-15T14:46:41;22.58;;;13.43;;
26951;SDS011;14507;52.418;13.398;2023-02-15T14:49:17;24.10;;;13.07;;
26951;SDS011;14507;52.418;13.398;2023-02-15T14:52:06;21.85;;;11.98;;
26951;SDS011;14507;52.418;13.398;2023-02-15T15:02:04;25.23;;;14.00;;
26951;SDS011;14507;52.418;13.398;2023-02-15T15:04:46;34.15;;;17.35;;
26951;SDS011;14507;52.418;13.398;2023-02-15T15:07:25;34.30;;;17.95;;
26951;SDS011;14507;52.418;13.398;2023-02-15T15:12:45;31.65;;;17.23;;
26951;SDS011;14507;52.418;13.398;2023-02-15T15:20:45;41.53;;;18.90;;
26951;SDS011;14507;52.418;13.398;2023-02-15T15:25:41;27.98;;;15.52;;
26951;SDS011;14507;52.418;13.398;2023-02-15T15:28:07;23.33;;;11.47;;
26951;SDS011;14507;52.418;13.398;2023-02-15T15:39:00;25.98;;;14.20;;
26951;SDS011;14507;52.418;13.398;2023-02-15T15:47:41;14.90;;;7.88;;
26951;SDS011;14507;52.418;13.398;2023-02-15T15:50:38;13.60;;;8.55;;
26951;SDS011;14507;52.418;13.398;2023-02-15T15:53:05;16.23;;;9.05;;
26951;SDS011;14507;52.418;13.398;2023-02-15T15:55:45;15.18;;;8.93;;
26951;SDS011;14507;52.418;13.398;2023-02-15T15:58:17;15.45;;;8.13;;
26951;SDS011;14507;52.418;13.398;2023-02-15T16:00:48;14.10;;;8.30;;
26951;SDS011;14507;52.418;13.398;2023-02-15T16:03:26;16.67;;;7.93;;
26951;SDS011;14507;52.418;13.398;2023-02-15T16:05:53;14.10;;;7.78;;
26951;SDS011;14507;52.418;13.398;2023-02-15T16:08:37;15.75;;;8.45;;
26951;SDS011;14507;52.418;13.398;2023-02-15T16:11:16;13.98;;;7.65;;
26951;SDS011;14507;52.418;13.398;2023-02-15T16:13:47;15.27;;;8.55;;
26951;SDS011;14507;52.418;13.398;2023-02-15T16:16:13;26.58;;;11.85;;
26951;SDS011;14507;52.418;13.398;2023-02-15T16:18:46;25.70;;;11.07;;
26951;SDS011;14507;52.418;13.398;2023-02-15T16:21:23;21.92;;;11.30;;
26951;SDS011;14507;52.418;13.398;2023-02-15T16:24:04;17.48;;;9.80;;
26951;SDS011;14507;52.418;13.398;2023-02-15T16:26:50;21.35;;;9.07;;
26951;SDS011;14507;52.418;13.398;2023-02-15T16:29:26;22.77;;;10.50;;
26951;SDS011;14507;52.418;13.398;2023-02-15T16:32:00;19.13;;;10.13;;
26951;SDS011;14507;52.418;13.398;2023-02-15T16:35:00;27.20;;;11.98;;
26951;SDS011;14507;52.418;13.398;2023-02-15T16:37:31;24.20;;;11.80;;
26951;SDS011;14507;52.418;13.398;2023-02-15T16:39:58;24.45;;;11.77;;
26951;SDS011;14507;52.418;13.398;2023-02-15T16:42:24;25.60;;;11.88;;
26951;SDS011;14507;52.418;13.398;2023-02-15T16:47:39;26.25;;;12.02;;
26951;SDS011;14507;52.418;13.398;2023-02-15T16:52:58;23.40;;;11.35;;
26951;SDS011;14507;52.418;13.398;2023-02-15T16:55:26;33.78;;;13.68;;
26951;SDS011;14507;52.418;13.398;2023-02-15T16:57:55;35.08;;;16.55;;
26951;SDS011;14507;52.418;13.398;2023-02-15T17:00:25;36.17;;;14.50;;
26951;SDS011;14507;52.418;13.398;2023-02-15T17:05:25;32.78;;;14.35;;
26951;SDS011;14507;52.418;13.398;2023-02-15T17:10:40;28.25;;;13.88;;
26951;SDS011;14507;52.418;13.398;2023-02-15T17:13:16;26.67;;;14.45;;
26951;SDS011;14507;52.418;13.398;2023-02-15T17:18:24;29.27;;;13.80;;
26951;SDS011;14507;52.418;13.398;2023-02-15T17:21:28;33.50;;;14.02;;
26951;SDS011;14507;52.418;13.398;2023-02-15T17:23:56;35.15;;;16.00;;
26951;SDS011;14507;52.418;13.398;2023-02-15T17:29:09;49.80;;;26.23;;
26951;SDS011;14507;52.418;13.398;2023-02-15T17:31:47;44.58;;;20.13;;
26951;SDS011;14507;52.418;13.398;2023-02-15T17:37:09;35.08;;;17.55;;
26951;SDS011;14507;52.418;13.398;2023-02-15T17:39:47;33.33;;;16.05;;
26951;SDS011;14507;52.418;13.398;2023-02-15T17:42:13;41.03;;;16.27;;
26951;SDS011;14507;52.418;13.398;2023-02-15T17:44:38;38.78;;;18.90;;
26951;SDS011;14507;52.418;13.398;2023-02-15T17:47:04;39.17;;;18.80;;
26951;SDS011;14507;52.418;13.398;2023-02-15T17:49:30;37.38;;;17.42;;